sensor_id;sensor_type;location;lat;lon;timestamp;temperature;humidity
49503;DHT22;35409;48.776;9.204;2023-05-10T00:01:37;13.10;99.90
49503;DHT22;35409;48.776;9.204;2023-05-10T00:04:03;13.10;99.90
49503;DHT22;35409;48.776;9.204;2023-05-10T00:06:29;13.10;99.90
49503;DHT22;35409;48.776;9.204;2023-05-10T00:08:55;13.10;99.90
49503;DHT22;35409;48.776;9.204;2023-05-10T00:11:20;13.10;99.90
49503;DHT22;35409;48.776;9.204;2023-05-10T00:13:46;13.10;99.90
49503;DHT22;35409;48.776;9.204;2023-05-10T00:16:12;13.00;99.90
49503;DHT22;35409;48.776;9.204;2023-05-10T00:18:38;13.00;99.90
49503;DHT22;35409;48.776;9.204;2023-05-10T00:21:04;13.00;99.90
49503;DHT22;35409;48.776;9.204;2023-05-10T00:23:30;12.90;99.90
49503;DHT22;35409;48.776;9.204;2023-05-10T00:25:56;12.90;99.90
49503;DHT22;35409;48.776;9.204;2023-05-10T00:28:21;12.80;99.90
49503;DHT22;35409;48.776;9.204;2023-05-10T00:30:47;12.70;99.90
49503;DHT22;35409;48.776;9.204;2023-05-10T00:33:13;12.60;99.90
49503;DHT22;35409;48.776;9.204;2023-05-10T00:35:38;12.60;99.90
49503;DHT22;35409;48.776;9.204;2023-05-10T00:38:04;12.50;99.90
49503;DHT22;35409;48.776;9.204;2023-05-10T00:40:30;12.50;99.90
49503;DHT22;35409;48.776;9.204;2023-05-10T00:42:56;12.50;99.90
49503;DHT22;35409;48.776;9.204;2023-05-10T00:45:22;12.40;99.90
49503;DHT22;35409;48.776;9.204;2023-05-10T00:47:48;12.50;99.90
49503;DHT22;35409;48.776;9.204;2023-05-10T00:50:14;12.40;99.90
49503;DHT22;35409;48.776;9.204;2023-05-10T00:52:41;12.40;99.90
49503;DHT22;35409;48.776;9.204;2023-05-10T00:55:09;12.40;99.90
49503;DHT22;35409;48.776;9.204;2023-05-10T00:57:35;12.40;99.90
49503;DHT22;35409;48.776;9.204;2023-05-10T01:00:02;12.40;99.90
49503;DHT22;35409;48.776;9.204;2023-05-10T01:02:28;12.40;99.90
49503;DHT22;35409;48.776;9.204;2023-05-10T01:04:54;12.30;99.90
49503;DHT22;35409;48.776;9.204;2023-05-10T01:07:20;12.30;99.90
49503;DHT22;35409;48.776;9.204;2023-05-10T01:13:07;12.30;99.90
49503;DHT22;35409;48.776;9.204;2023-05-10T01:15:33;12.30;99.90
49503;DHT22;35409;48.776;9.204;2023-05-10T01:17:59;12.20;99.90
49503;DHT22;35409;48.776;9.204;2023-05-10T01:20:35;12.30;99.90
49503;DHT22;35409;48.776;9.204;2023-05-10T01:29:11;12.30;99.90
49503;DHT22;35409;48.776;9.204;2023-05-10T01:37:45;12.20;99.90
49503;DHT22;35409;48.776;9.204;2023-05-10T01:40:25;12.20;99.90
49503;DHT22;35409;48.776;9.204;2023-05-10T01:42:54;12.20;99.90
49503;DHT22;35409;48.776;9.204;2023-05-10T01:45:31;12.20;99.90
49503;DHT22;35409;48.776;9.204;2023-05-10T01:48:09;12.30;99.90
49503;DHT22;35409;48.776;9.204;2023-05-10T01:50:37;12.30;99.90
49503;DHT22;35409;48.776;9.204;2023-05-10T01:53:06;12.20;99.90
49503;DHT22;35409;48.776;9.204;2023-05-10T01:55:36;12.20;99.90
49503;DHT22;35409;48.776;9.204;2023-05-10T01:58:08;12.20;99.90
49503;DHT22;35409;48.776;9.204;2023-05-10T02:00:35;12.20;99.90
49503;DHT22;35409;48.776;9.204;2023-05-10T02:03:05;12.20;99.90
49503;DHT22;35409;48.776;9.204;2023-05-10T02:05:32;12.10;99.90
49503;DHT22;35409;48.776;9.204;2023-05-10T02:07:59;12.10;99.90
49503;DHT22;35409;48.776;9.204;2023-05-10T02:10:26;12.00;99.90
49503;DHT22;35409;48.776;9.204;2023-05-10T02:12:53;12.00;99.90
49503;DHT22;35409;48.776;9.204;2023-05-10T02:15:23;12.00;99.90
49503;DHT22;35409;48.776;9.204;2023-05-10T02:17:50;12.00;99.90
49503;DHT22;35409;48.776;9.204;2023-05-10T02:20:18;11.90;99.90
49503;DHT22;35409;48.776;9.204;2023-05-10T02:22:45;11.90;99.90
49503;DHT22;35409;48.776;9.204;2023-05-10T02:25:13;11.90;99.90
49503;DHT22;35409;48.776;9.204;2023-05-10T02:27:41;11.90;99.90
49503;DHT22;35409;48.776;9.204;2023-05-10T02:30:10;11.90;99.90
49503;DHT22;35409;48.776;9.204;2023-05-10T02:32:36;11.90;99.90
49503;DHT22;35409;48.776;9.204;2023-05-10T02:35:03;11.90;99.90
49503;DHT22;35409;48.776;9.204;2023-05-10T02:37:30;11.90;99.90
49503;DHT22;35409;48.776;9.204;2023-05-10T02:39:58;11.90;99.90
49503;DHT22;35409;48.776;9.204;2023-05-10T02:42:26;11.90;99.90
49503;DHT22;35409;48.776;9.204;2023-05-10T02:44:59;11.90;99.90
49503;DHT22;35409;48.776;9.204;2023-05-10T02:47:25;11.90;99.90
49503;DHT22;35409;48.776;9.204;2023-05-10T02:49:51;11.90;99.90
49503;DHT22;35409;48.776;9.204;2023-05-10T02:52:23;11.90;99.90
49503;DHT22;35409;48.776;9.204;2023-05-10T02:54:54;11.90;99.90
49503;DHT22;35409;48.776;9.204;2023-05-10T02:57:27;12.00;99.90
49503;DHT22;35409;48.776;9.204;2023-05-10T02:59:54;12.00;99.90
49503;DHT22;35409;48.776;9.204;2023-05-10T03:02:20;12.00;99.90
49503;DHT22;35409;48.776;9.204;2023-05-10T03:04:46;12.00;99.90
49503;DHT22;35409;48.776;9.204;2023-05-10T03:07:12;12.00;99.90
49503;DHT22;35409;48.776;9.204;2023-05-10T03:09:38;12.00;99.90
49503;DHT22;35409;48.776;9.204;2023-05-10T03:15:07;12.00;99.90
49503;DHT22;35409;48.776;9.204;2023-05-10T03:17:45;12.00;99.90
49503;DHT22;35409;48.776;9.204;2023-05-10T03:20:16;11.90;99.90
49503;DHT22;35409;48.776;9.204;2023-05-10T03:22:55;12.00;99.90
49503;DHT22;35409;48.776;9.204;2023-05-10T03:25:26;12.00;99.90
49503;DHT22;35409;48.776;9.204;2023-05-10T03:27:52;12.00;99.90
49503;DHT22;35409;48.776;9.204;2023-05-10T03:30:19;12.00;99.90
49503;DHT22;35409;48.776;9.204;2023-05-10T03:32:45;11.90;99.90
49503;DHT22;35409;48.776;9.204;2023-05-10T03:35:12;12.00;99.90
49503;DHT22;35409;48.776;9.204;2023-05-10T03:37:38;11.90;99.90
49503;DHT22;35409;48.776;9.204;2023-05-10T03:40:05;12.00;99.90
49503;DHT22;35409;48.776;9.204;2023-05-10T03:42:31;12.00;99.90
49503;DHT22;35409;48.776;9.204;2023-05-10T03:44:56;12.00;99.90
49503;DHT22;35409;48.776;9.204;2023-05-10T03:47:22;12.00;99.90
49503;DHT22;35409;48.776;9.204;2023-05-10T03:49:48;12.00;99.90
49503;DHT22;35409;48.776;9.204;2023-05-10T03:52:14;12.00;99.90
49503;DHT22;35409;48.776;9.204;2023-05-10T03:54:39;12.00;99.90
49503;DHT22;35409;48.776;9.204;2023-05-10T03:57:05;12.00;99.90
49503;DHT22;35409;48.776;9.204;2023-05-10T03:59:30;12.00;99.90
49503;DHT22;35409;48.776;9.204;2023-05-10T04:01:56;12.00;99.90
49503;DHT22;35409;48.776;9.204;2023-05-10T04:04:22;12.00;99.90
49503;DHT22;35409;48.776;9.204;2023-05-10T04:06:48;12.00;99.90
49503;DHT22;35409;48.776;9.204;2023-05-10T04:09:14;12.00;99.90
49503;DHT22;35409;48.776;9.204;2023-05-10T04:11:39;12.10;99.90
49503;DHT22;35409;48.776;9.204;2023-05-10T04:14:05;12.00;99.90
49503;DHT22;35409;48.776;9.204;2023-05-10T04:16:31;12.10;99.90
49503;DHT22;35409;48.776;9.204;2023-05-10T04:18:56;12.00;99.90
49503;DHT22;35409;48.776;9.204;2023-05-10T04:21:22;12.10;99.90
49503;DHT22;35409;48.776;9.204;2023-05-10T04:23:48;12.10;99.90
49503;DHT22;35409;48.776;9.204;2023-05-10T04:26:13;12.10;99.90
49503;DHT22;35409;48.776;9.204;2023-05-10T04:28:39;12.10;99.90
49503;DHT22;35409;48.776;9.204;2023-05-10T04:31:07;12.20;99.90
49503;DHT22;35409;48.776;9.204;2023-05-10T04:33:33;12.20;99.90
49503;DHT22;35409;48.776;9.204;2023-05-10T04:35:59;12.20;99.90
49503;DHT22;35409;48.776;9.204;2023-05-10T04:38:26;12.30;99.90
49503;DHT22;35409;48.776;9.204;2023-05-10T04:40:52;12.30;99.90
49503;DHT22;35409;48.776;9.204;2023-05-10T04:43:18;12.40;99.90
49503;DHT22;35409;48.776;9.204;2023-05-10T04:45:43;12.30;99.90
49503;DHT22;35409;48.776;9.204;2023-05-10T04:48:09;12.40;99.90
49503;DHT22;35409;48.776;9.204;2023-05-10T04:50:35;12.40;99.90
49503;DHT22;35409;48.776;9.204;2023-05-10T04:53:00;12.40;99.90
49503;DHT22;35409;48.776;9.204;2023-05-10T04:55:26;12.40;99.90
49503;DHT22;35409;48.776;9.204;2023-05-10T04:57:52;12.50;99.90
49503;DHT22;35409;48.776;9.204;2023-05-10T05:00:18;12.50;99.90
49503;DHT22;35409;48.776;9.204;2023-05-10T05:02:45;12.50;99.90
49503;DHT22;35409;48.776;9.204;2023-05-10T05:05:11;12.60;99.90
49503;DHT22;35409;48.776;9.204;2023-05-10T05:07:37;12.60;99.90
49503;DHT22;35409;48.776;9.204;2023-05-10T05:10:05;12.60;99.90
49503;DHT22;35409;48.776;9.204;2023-05-10T05:12:31;12.70;99.90
49503;DHT22;35409;48.776;9.204;2023-05-10T05:14:56;12.80;99.90
49503;DHT22;35409;48.776;9.204;2023-05-10T05:17:22;12.80;99.90
49503;DHT22;35409;48.776;9.204;2023-05-10T05:19:47;12.90;99.90
49503;DHT22;35409;48.776;9.204;2023-05-10T05:22:13;12.90;99.90
49503;DHT22;35409;48.776;9.204;2023-05-10T05:24:38;13.00;99.90
49503;DHT22;35409;48.776;9.204;2023-05-10T05:27:04;13.00;99.90
49503;DHT22;35409;48.776;9.204;2023-05-10T05:29:30;13.10;99.90
49503;DHT22;35409;48.776;9.204;2023-05-10T05:31:55;13.10;99.90
49503;DHT22;35409;48.776;9.204;2023-05-10T05:34:21;13.20;99.90
49503;DHT22;35409;48.776;9.204;2023-05-10T05:36:47;13.20;99.90
49503;DHT22;35409;48.776;9.204;2023-05-10T05:39:13;13.30;99.90
49503;DHT22;35409;48.776;9.204;2023-05-10T05:41:39;13.30;99.90
49503;DHT22;35409;48.776;9.204;2023-05-10T05:44:04;13.30;99.90
49503;DHT22;35409;48.776;9.204;2023-05-10T05:46:30;13.40;99.90
49503;DHT22;35409;48.776;9.204;2023-05-10T05:48:56;13.40;99.90
49503;DHT22;35409;48.776;9.204;2023-05-10T05:51:22;13.40;99.90
49503;DHT22;35409;48.776;9.204;2023-05-10T05:53:47;13.50;99.90
49503;DHT22;35409;48.776;9.204;2023-05-10T05:56:13;13.50;99.90
49503;DHT22;35409;48.776;9.204;2023-05-10T05:58:39;13.50;99.90
49503;DHT22;35409;48.776;9.204;2023-05-10T06:01:04;13.60;99.90
49503;DHT22;35409;48.776;9.204;2023-05-10T06:03:30;13.70;99.90
49503;DHT22;35409;48.776;9.204;2023-05-10T06:05:56;13.70;99.90
49503;DHT22;35409;48.776;9.204;2023-05-10T06:08:21;13.70;99.90
49503;DHT22;35409;48.776;9.204;2023-05-10T06:10:47;13.80;99.90
49503;DHT22;35409;48.776;9.204;2023-05-10T06:13:13;13.80;99.90
49503;DHT22;35409;48.776;9.204;2023-05-10T06:15:39;13.90;99.90
49503;DHT22;35409;48.776;9.204;2023-05-10T06:18:04;14.00;99.90
49503;DHT22;35409;48.776;9.204;2023-05-10T06:20:31;14.00;99.90
49503;DHT22;35409;48.776;9.204;2023-05-10T06:22:57;14.10;99.90
49503;DHT22;35409;48.776;9.204;2023-05-10T06:25:23;14.20;99.90
49503;DHT22;35409;48.776;9.204;2023-05-10T06:27:48;14.20;99.90
49503;DHT22;35409;48.776;9.204;2023-05-10T06:30:14;14.30;99.90
49503;DHT22;35409;48.776;9.204;2023-05-10T06:32:40;14.40;99.90
49503;DHT22;35409;48.776;9.204;2023-05-10T06:35:07;14.40;99.90
49503;DHT22;35409;48.776;9.204;2023-05-10T06:37:33;14.40;99.90
49503;DHT22;35409;48.776;9.204;2023-05-10T06:39:59;14.30;99.90
49503;DHT22;35409;48.776;9.204;2023-05-10T06:42:25;14.30;99.90
49503;DHT22;35409;48.776;9.204;2023-05-10T06:44:52;14.30;99.90
49503;DHT22;35409;48.776;9.204;2023-05-10T06:47:18;14.20;99.90
49503;DHT22;35409;48.776;9.204;2023-05-10T06:49:43;14.10;99.90
49503;DHT22;35409;48.776;9.204;2023-05-10T06:52:09;14.10;99.90
49503;DHT22;35409;48.776;9.204;2023-05-10T06:54:35;14.00;99.90
49503;DHT22;35409;48.776;9.204;2023-05-10T06:57:00;14.00;99.90
49503;DHT22;35409;48.776;9.204;2023-05-10T06:59:28;14.00;99.90
49503;DHT22;35409;48.776;9.204;2023-05-10T07:01:53;14.00;99.90
49503;DHT22;35409;48.776;9.204;2023-05-10T07:04:19;14.00;99.90
49503;DHT22;35409;48.776;9.204;2023-05-10T07:06:45;14.00;99.90
49503;DHT22;35409;48.776;9.204;2023-05-10T07:09:11;14.00;99.90
49503;DHT22;35409;48.776;9.204;2023-05-10T07:11:38;14.00;99.90
49503;DHT22;35409;48.776;9.204;2023-05-10T07:14:04;14.10;99.90
49503;DHT22;35409;48.776;9.204;2023-05-10T07:16:29;14.20;99.90
49503;DHT22;35409;48.776;9.204;2023-05-10T07:18:55;14.40;99.90
49503;DHT22;35409;48.776;9.204;2023-05-10T07:21:21;14.60;99.90
49503;DHT22;35409;48.776;9.204;2023-05-10T07:23:49;14.80;99.90
49503;DHT22;35409;48.776;9.204;2023-05-10T07:26:15;14.90;99.90
49503;DHT22;35409;48.776;9.204;2023-05-10T07:28:41;15.00;99.90
49503;DHT22;35409;48.776;9.204;2023-05-10T07:31:06;15.20;99.90
49503;DHT22;35409;48.776;9.204;2023-05-10T07:33:32;15.40;99.90
49503;DHT22;35409;48.776;9.204;2023-05-10T07:35:57;15.60;99.90
49503;DHT22;35409;48.776;9.204;2023-05-10T07:38:23;15.70;99.90
49503;DHT22;35409;48.776;9.204;2023-05-10T07:40:49;15.80;99.90
49503;DHT22;35409;48.776;9.204;2023-05-10T07:43:14;15.90;99.90
49503;DHT22;35409;48.776;9.204;2023-05-10T07:45:40;16.00;99.90
49503;DHT22;35409;48.776;9.204;2023-05-10T07:48:05;16.10;99.90
49503;DHT22;35409;48.776;9.204;2023-05-10T07:50:31;16.20;99.90
49503;DHT22;35409;48.776;9.204;2023-05-10T07:52:56;16.20;99.90
49503;DHT22;35409;48.776;9.204;2023-05-10T07:55:22;16.30;99.90
49503;DHT22;35409;48.776;9.204;2023-05-10T07:57:48;16.40;99.90
49503;DHT22;35409;48.776;9.204;2023-05-10T08:00:17;16.50;99.90
49503;DHT22;35409;48.776;9.204;2023-05-10T08:02:43;16.60;99.90
49503;DHT22;35409;48.776;9.204;2023-05-10T08:05:08;16.60;99.90
49503;DHT22;35409;48.776;9.204;2023-05-10T08:07:35;16.60;99.90
49503;DHT22;35409;48.776;9.204;2023-05-10T08:10:01;16.50;99.90
49503;DHT22;35409;48.776;9.204;2023-05-10T08:12:26;16.40;99.90
49503;DHT22;35409;48.776;9.204;2023-05-10T08:14:52;16.30;99.90
49503;DHT22;35409;48.776;9.204;2023-05-10T08:17:18;16.30;99.90
49503;DHT22;35409;48.776;9.204;2023-05-10T08:19:43;16.20;99.90
49503;DHT22;35409;48.776;9.204;2023-05-10T08:22:09;16.10;99.90
49503;DHT22;35409;48.776;9.204;2023-05-10T08:24:35;16.00;99.90
49503;DHT22;35409;48.776;9.204;2023-05-10T08:27:07;16.00;99.90
49503;DHT22;35409;48.776;9.204;2023-05-10T08:29:32;16.00;99.90
49503;DHT22;35409;48.776;9.204;2023-05-10T08:31:58;16.00;99.90
49503;DHT22;35409;48.776;9.204;2023-05-10T08:34:23;16.00;99.90
49503;DHT22;35409;48.776;9.204;2023-05-10T08:36:49;16.00;99.90
49503;DHT22;35409;48.776;9.204;2023-05-10T08:39:15;16.00;99.90
49503;DHT22;35409;48.776;9.204;2023-05-10T08:41:44;16.00;99.90
49503;DHT22;35409;48.776;9.204;2023-05-10T08:44:09;16.00;99.90
49503;DHT22;35409;48.776;9.204;2023-05-10T08:46:37;16.00;99.90
49503;DHT22;35409;48.776;9.204;2023-05-10T08:49:06;15.90;99.90
49503;DHT22;35409;48.776;9.204;2023-05-10T08:51:36;15.90;99.90
49503;DHT22;35409;48.776;9.204;2023-05-10T08:54:05;16.00;99.90
49503;DHT22;35409;48.776;9.204;2023-05-10T08:56:31;16.00;99.90
49503;DHT22;35409;48.776;9.204;2023-05-10T08:58:57;16.10;99.90
49503;DHT22;35409;48.776;9.204;2023-05-10T09:01:23;16.20;99.90
49503;DHT22;35409;48.776;9.204;2023-05-10T09:03:50;16.50;99.90
49503;DHT22;35409;48.776;9.204;2023-05-10T09:06:16;16.80;99.90
49503;DHT22;35409;48.776;9.204;2023-05-10T09:08:42;16.90;99.90
49503;DHT22;35409;48.776;9.204;2023-05-10T09:11:09;17.00;99.90
49503;DHT22;35409;48.776;9.204;2023-05-10T09:13:35;17.10;99.90
49503;DHT22;35409;48.776;9.204;2023-05-10T09:16:02;17.20;99.90
49503;DHT22;35409;48.776;9.204;2023-05-10T09:18:28;17.20;99.90
49503;DHT22;35409;48.776;9.204;2023-05-10T09:20:54;17.20;99.90
49503;DHT22;35409;48.776;9.204;2023-05-10T09:23:20;17.40;99.90
49503;DHT22;35409;48.776;9.204;2023-05-10T09:25:45;17.60;99.90
49503;DHT22;35409;48.776;9.204;2023-05-10T09:28:11;17.50;99.90
49503;DHT22;35409;48.776;9.204;2023-05-10T09:30:37;17.40;99.90
49503;DHT22;35409;48.776;9.204;2023-05-10T09:33:03;17.40;99.90
49503;DHT22;35409;48.776;9.204;2023-05-10T09:35:31;17.30;99.90
49503;DHT22;35409;48.776;9.204;2023-05-10T09:37:59;17.30;99.90
49503;DHT22;35409;48.776;9.204;2023-05-10T09:40:27;17.40;99.90
49503;DHT22;35409;48.776;9.204;2023-05-10T09:43:08;17.40;99.90
49503;DHT22;35409;48.776;9.204;2023-05-10T09:45:34;17.40;99.90
49503;DHT22;35409;48.776;9.204;2023-05-10T09:48:02;17.60;99.90
49503;DHT22;35409;48.776;9.204;2023-05-10T09:50:28;17.80;99.90
49503;DHT22;35409;48.776;9.204;2023-05-10T09:53:02;17.90;99.90
49503;DHT22;35409;48.776;9.204;2023-05-10T09:55:42;18.00;99.90
49503;DHT22;35409;48.776;9.204;2023-05-10T09:58:12;18.00;99.90
49503;DHT22;35409;48.776;9.204;2023-05-10T10:00:40;17.90;99.90
49503;DHT22;35409;48.776;9.204;2023-05-10T10:03:06;17.80;99.90
49503;DHT22;35409;48.776;9.204;2023-05-10T10:05:33;17.80;99.90
49503;DHT22;35409;48.776;9.204;2023-05-10T10:08:01;17.90;99.90
49503;DHT22;35409;48.776;9.204;2023-05-10T10:10:28;17.90;99.90
49503;DHT22;35409;48.776;9.204;2023-05-10T10:12:54;17.90;99.90
49503;DHT22;35409;48.776;9.204;2023-05-10T10:15:21;17.90;99.90
49503;DHT22;35409;48.776;9.204;2023-05-10T10:17:48;17.80;99.90
49503;DHT22;35409;48.776;9.204;2023-05-10T10:20:15;17.70;99.90
49503;DHT22;35409;48.776;9.204;2023-05-10T10:22:40;17.40;99.90
49503;DHT22;35409;48.776;9.204;2023-05-10T10:25:07;17.20;99.90
49503;DHT22;35409;48.776;9.204;2023-05-10T10:30:35;17.10;99.90
49503;DHT22;35409;48.776;9.204;2023-05-10T10:33:33;17.20;99.90
49503;DHT22;35409;48.776;9.204;2023-05-10T10:36:02;17.40;99.90
49503;DHT22;35409;48.776;9.204;2023-05-10T10:38:55;17.60;99.90
49503;DHT22;35409;48.776;9.204;2023-05-10T10:41:39;17.80;99.90
49503;DHT22;35409;48.776;9.204;2023-05-10T10:50:04;18.10;99.90
49503;DHT22;35409;48.776;9.204;2023-05-10T10:52:40;18.10;99.90
49503;DHT22;35409;48.776;9.204;2023-05-10T11:00:31;17.60;99.90
49503;DHT22;35409;48.776;9.204;2023-05-10T11:03:06;17.40;99.90
49503;DHT22;35409;48.776;9.204;2023-05-10T11:05:41;17.20;99.90
49503;DHT22;35409;48.776;9.204;2023-05-10T11:08:13;17.10;99.90
49503;DHT22;35409;48.776;9.204;2023-05-10T11:10:40;17.00;99.90
49503;DHT22;35409;48.776;9.204;2023-05-10T11:13:07;17.00;99.90
49503;DHT22;35409;48.776;9.204;2023-05-10T11:15:35;17.00;99.90
49503;DHT22;35409;48.776;9.204;2023-05-10T11:18:29;16.90;99.90
49503;DHT22;35409;48.776;9.204;2023-05-10T11:23:20;16.80;99.90
49503;DHT22;35409;48.776;9.204;2023-05-10T11:25:47;16.70;99.90
49503;DHT22;35409;48.776;9.204;2023-05-10T11:28:14;16.60;99.90
49503;DHT22;35409;48.776;9.204;2023-05-10T11:30:41;16.60;99.90
49503;DHT22;35409;48.776;9.204;2023-05-10T11:33:07;16.50;99.90
49503;DHT22;35409;48.776;9.204;2023-05-10T11:35:39;16.50;99.90
49503;DHT22;35409;48.776;9.204;2023-05-10T11:38:10;16.60;99.90
49503;DHT22;35409;48.776;9.204;2023-05-10T11:40:36;16.80;99.90
49503;DHT22;35409;48.776;9.204;2023-05-10T11:43:02;17.10;99.90
49503;DHT22;35409;48.776;9.204;2023-05-10T11:45:28;17.30;99.90
49503;DHT22;35409;48.776;9.204;2023-05-10T11:47:56;17.50;99.90
49503;DHT22;35409;48.776;9.204;2023-05-10T11:50:22;17.60;99.90
49503;DHT22;35409;48.776;9.204;2023-05-10T11:52:57;17.60;99.90
49503;DHT22;35409;48.776;9.204;2023-05-10T11:55:24;17.50;99.90
49503;DHT22;35409;48.776;9.204;2023-05-10T11:57:59;17.50;99.90
49503;DHT22;35409;48.776;9.204;2023-05-10T12:00:25;17.30;99.90
49503;DHT22;35409;48.776;9.204;2023-05-10T12:02:51;17.20;99.90
49503;DHT22;35409;48.776;9.204;2023-05-10T12:05:16;17.00;99.90
49503;DHT22;35409;48.776;9.204;2023-05-10T12:07:42;16.90;99.90
49503;DHT22;35409;48.776;9.204;2023-05-10T12:10:10;16.90;99.90
49503;DHT22;35409;48.776;9.204;2023-05-10T12:12:45;16.70;99.90
49503;DHT22;35409;48.776;9.204;2023-05-10T12:15:18;16.40;99.90
49503;DHT22;35409;48.776;9.204;2023-05-10T12:17:45;16.40;99.90
49503;DHT22;35409;48.776;9.204;2023-05-10T12:20:17;16.50;99.90
49503;DHT22;35409;48.776;9.204;2023-05-10T12:22:49;16.50;99.90
49503;DHT22;35409;48.776;9.204;2023-05-10T12:25:15;16.60;99.90
49503;DHT22;35409;48.776;9.204;2023-05-10T12:27:50;16.70;99.90
49503;DHT22;35409;48.776;9.204;2023-05-10T12:30:28;16.80;99.90
49503;DHT22;35409;48.776;9.204;2023-05-10T12:32:59;17.00;99.90
49503;DHT22;35409;48.776;9.204;2023-05-10T12:35:25;17.00;99.90
49503;DHT22;35409;48.776;9.204;2023-05-10T12:37:51;17.20;99.90
49503;DHT22;35409;48.776;9.204;2023-05-10T12:40:17;17.30;99.90
49503;DHT22;35409;48.776;9.204;2023-05-10T12:42:43;17.50;99.90
49503;DHT22;35409;48.776;9.204;2023-05-10T12:45:10;17.60;99.90
49503;DHT22;35409;48.776;9.204;2023-05-10T12:47:36;17.70;99.90
49503;DHT22;35409;48.776;9.204;2023-05-10T12:50:03;17.70;99.90
49503;DHT22;35409;48.776;9.204;2023-05-10T12:52:30;17.70;99.90
49503;DHT22;35409;48.776;9.204;2023-05-10T12:54:57;17.70;99.90
49503;DHT22;35409;48.776;9.204;2023-05-10T12:57:22;17.70;99.90
49503;DHT22;35409;48.776;9.204;2023-05-10T12:59:48;17.50;99.90
49503;DHT22;35409;48.776;9.204;2023-05-10T13:02:15;17.30;99.90
49503;DHT22;35409;48.776;9.204;2023-05-10T13:04:43;17.30;99.90
49503;DHT22;35409;48.776;9.204;2023-05-10T13:07:09;17.20;99.90
49503;DHT22;35409;48.776;9.204;2023-05-10T13:09:35;17.20;99.90
49503;DHT22;35409;48.776;9.204;2023-05-10T13:12:01;17.10;99.90
49503;DHT22;35409;48.776;9.204;2023-05-10T13:14:27;16.90;99.90
49503;DHT22;35409;48.776;9.204;2023-05-10T13:16:53;16.90;99.90
49503;DHT22;35409;48.776;9.204;2023-05-10T13:19:19;16.80;99.90
49503;DHT22;35409;48.776;9.204;2023-05-10T13:21:45;16.70;99.90
49503;DHT22;35409;48.776;9.204;2023-05-10T13:24:11;16.60;99.90
49503;DHT22;35409;48.776;9.204;2023-05-10T13:26:39;16.60;99.90
49503;DHT22;35409;48.776;9.204;2023-05-10T13:29:05;16.60;99.90
49503;DHT22;35409;48.776;9.204;2023-05-10T13:31:31;16.70;99.90
49503;DHT22;35409;48.776;9.204;2023-05-10T13:33:57;16.80;99.90
49503;DHT22;35409;48.776;9.204;2023-05-10T13:36:22;17.00;99.90
49503;DHT22;35409;48.776;9.204;2023-05-10T13:38:48;17.20;99.90
49503;DHT22;35409;48.776;9.204;2023-05-10T13:41:14;17.40;99.90
49503;DHT22;35409;48.776;9.204;2023-05-10T13:43:40;17.50;99.90
49503;DHT22;35409;48.776;9.204;2023-05-10T13:46:05;17.70;99.90
49503;DHT22;35409;48.776;9.204;2023-05-10T13:48:31;17.90;99.90
49503;DHT22;35409;48.776;9.204;2023-05-10T13:50:56;17.90;99.90
49503;DHT22;35409;48.776;9.204;2023-05-10T13:53:22;17.90;99.90
49503;DHT22;35409;48.776;9.204;2023-05-10T13:55:48;17.80;99.90
49503;DHT22;35409;48.776;9.204;2023-05-10T13:58:13;17.70;99.90
49503;DHT22;35409;48.776;9.204;2023-05-10T14:00:39;17.70;99.90
49503;DHT22;35409;48.776;9.204;2023-05-10T14:03:05;17.60;99.90
49503;DHT22;35409;48.776;9.204;2023-05-10T14:05:32;17.50;99.90
49503;DHT22;35409;48.776;9.204;2023-05-10T14:07:58;17.50;99.90
49503;DHT22;35409;48.776;9.204;2023-05-10T14:10:24;17.60;99.90
49503;DHT22;35409;48.776;9.204;2023-05-10T14:12:50;17.60;99.90
49503;DHT22;35409;48.776;9.204;2023-05-10T14:15:15;17.70;99.90
49503;DHT22;35409;48.776;9.204;2023-05-10T14:17:41;17.60;99.90
49503;DHT22;35409;48.776;9.204;2023-05-10T14:20:07;17.70;99.90
49503;DHT22;35409;48.776;9.204;2023-05-10T14:22:33;17.80;99.90
49503;DHT22;35409;48.776;9.204;2023-05-10T14:25:00;17.90;99.90
49503;DHT22;35409;48.776;9.204;2023-05-10T14:27:25;18.00;99.00
49503;DHT22;35409;48.776;9.204;2023-05-10T14:29:51;18.10;99.00
49503;DHT22;35409;48.776;9.204;2023-05-10T14:32:17;18.10;99.70
49503;DHT22;35409;48.776;9.204;2023-05-10T14:34:42;18.20;98.80
49503;DHT22;35409;48.776;9.204;2023-05-10T14:37:10;18.30;98.80
49503;DHT22;35409;48.776;9.204;2023-05-10T14:39:36;18.30;98.70
49503;DHT22;35409;48.776;9.204;2023-05-10T14:42:03;18.40;98.10
49503;DHT22;35409;48.776;9.204;2023-05-10T14:44:29;18.40;97.90
49503;DHT22;35409;48.776;9.204;2023-05-10T14:46:54;18.30;97.70
49503;DHT22;35409;48.776;9.204;2023-05-10T14:49:22;18.20;98.50
49503;DHT22;35409;48.776;9.204;2023-05-10T14:51:48;18.20;98.50
49503;DHT22;35409;48.776;9.204;2023-05-10T14:54:14;18.20;98.60
49503;DHT22;35409;48.776;9.204;2023-05-10T14:56:39;18.10;97.90
49503;DHT22;35409;48.776;9.204;2023-05-10T14:59:07;18.00;99.20
49503;DHT22;35409;48.776;9.204;2023-05-10T15:01:33;18.00;98.90
49503;DHT22;35409;48.776;9.204;2023-05-10T15:04:00;18.10;98.50
49503;DHT22;35409;48.776;9.204;2023-05-10T15:06:32;18.10;98.30
49503;DHT22;35409;48.776;9.204;2023-05-10T15:08:59;18.10;98.60
49503;DHT22;35409;48.776;9.204;2023-05-10T15:11:25;18.20;97.90
49503;DHT22;35409;48.776;9.204;2023-05-10T15:13:51;18.20;98.50
49503;DHT22;35409;48.776;9.204;2023-05-10T15:16:17;18.20;98.30
49503;DHT22;35409;48.776;9.204;2023-05-10T15:18:42;18.20;98.60
49503;DHT22;35409;48.776;9.204;2023-05-10T15:21:08;18.20;98.10
49503;DHT22;35409;48.776;9.204;2023-05-10T15:23:34;18.10;98.20
49503;DHT22;35409;48.776;9.204;2023-05-10T15:26:00;18.10;98.30
49503;DHT22;35409;48.776;9.204;2023-05-10T15:28:25;18.00;99.10
49503;DHT22;35409;48.776;9.204;2023-05-10T15:30:51;17.90;99.40
49503;DHT22;35409;48.776;9.204;2023-05-10T15:33:17;17.90;99.20
49503;DHT22;35409;48.776;9.204;2023-05-10T15:35:42;17.90;98.80
49503;DHT22;35409;48.776;9.204;2023-05-10T15:38:09;17.90;99.40
49503;DHT22;35409;48.776;9.204;2023-05-10T15:40:35;17.90;99.30
49503;DHT22;35409;48.776;9.204;2023-05-10T15:43:00;17.90;99.60
49503;DHT22;35409;48.776;9.204;2023-05-10T15:45:26;18.00;99.50
49503;DHT22;35409;48.776;9.204;2023-05-10T15:47:52;18.00;99.50
49503;DHT22;35409;48.776;9.204;2023-05-10T15:50:17;18.00;99.90
49503;DHT22;35409;48.776;9.204;2023-05-10T15:52:43;18.00;99.20
49503;DHT22;35409;48.776;9.204;2023-05-10T15:55:09;18.00;99.60
49503;DHT22;35409;48.776;9.204;2023-05-10T15:57:38;18.00;99.20
49503;DHT22;35409;48.776;9.204;2023-05-10T16:00:05;18.10;98.40
49503;DHT22;35409;48.776;9.204;2023-05-10T16:02:31;18.00;98.60
49503;DHT22;35409;48.776;9.204;2023-05-10T16:04:57;18.10;98.00